Terminal Aerodrome Forecast
Issued by NWS

Home | Current Version | Previous Version | Text Only | Print | Product List | Glossary On
Versions: 1 2 3 4 5 6 7 8 9 10 11 12 13 14
000
FTUS42 KTAE 310525
TAFDHN
TAF
KDHN 310525Z 3106/0106 33005KT P6SM SCT100 BKN250
     FM311000 25003KT 6SM BR SCT003
     FM311400 23006KT P6SM SCT025
     FM312100 23008KT P6SM VCTS SCT040CB
     FM010200 20005KT P6SM SCT040 BKN100=

USA.gov is the U.S. government's official web portal to all federal, state and local government web resources and services.